CheckWX is a tool to help pilots better visualize weather data.  It is not intended as a substitute for an official pre-flight weather briefing.

02:56:15 UTC

KLVK METAR
Livermore Municipal Airport
Livermore, California, USA
Current

17 mins ago

KLVK 180239Z 29011KT 8SM -RA BKN048 OVC060 06/02 A3004 RMK AO2 WSHFT 0219 RAB0157 TSB0157E0159 P0002 T00610017
Observed
Feb-18 @ 02:39 UTC
Wind
  • 290° at 11 KTS
Visibility
8 SM
Flight Rules
VFR
Conditions
Light Rain
Cloud Levels
  • Broken at 4,800' AGL
  • Overcast at 6,000' AGL
Temperature
C / 43°F
Dewpoint
C / 36°F
Humidity
76%
Altimeter
30.04" Hg
Pressure
1017.32 hPa
Current Rain
0.02"
Previous

1 hour ago

KLVK 180153Z 03013G20KT 10SM BKN050 BKN060 08/00 A3001 RMK AO2 RAB06E39 TSB08E23 SLP162 P0001 T00780000
Observed
Feb-18 @ 01:53 UTC
Wind
  • 030° at 13 KTS
  • Gusting to 20 KTS
Visibility
10 SM
Flight Rules
VFR
Cloud Levels
  • Broken at 5,000' AGL
  • Broken at 6,000' AGL
Temperature
C / 46°F
Dewpoint
C / 32°F
Humidity
57%
Altimeter
30.01" Hg
Pressure
1016.2 hPa
Current Rain
0.01"
Previous

1 hour ago

KLVK 180129Z 04012KT 10SM -RA BKN042 OVC049 06/01 A2999 RMK AO2 RAB06 TSB08E23 P0001 T00610011
Observed
Feb-18 @ 01:29 UTC
Wind
  • 040° at 12 KTS
Visibility
10 SM
Flight Rules
VFR
Conditions
Light Rain
Cloud Levels
  • Broken at 4,200' AGL
  • Overcast at 4,900' AGL
Temperature
C / 43°F
Dewpoint
C / 34°F
Humidity
71%
Altimeter
29.99" Hg
Pressure
1015.62 hPa
Current Rain
0.01"